McConnell AFB, Kansas
Current Conditions -  °F | °C
As of 11:54 AM on Saturday 25 Oct 2014 (Local Time) from KWLD Reporting Station
Clear Clear  
Wind Chill: 24°   Ceiling: Unl
Heat Index: 24°   Visibility: 10mi
Dew Point: 17°   Wind: 3mph
Humidity: 64%   Direction: 150°SSE
Pressure: 30.08"   Gusts: NA
Location:  37.38°N, 97.15°W
Report Text: KWLD 251654Z AUTO 15003KT 10SM CLR 24/17 A3008 RMK AO2 SLP177 T02440172
Loading
Personal Weather Stations






























Interactive Weather Map
Tropical Storm Tracking
New forecast layout! Learn more

10-Day Weather Forecast

Advertisements
Track Severe Weather on mobile